createdAt,value
2023-03-26T00:00:39.048Z,6
2023-03-26T00:01:45.851Z,4
2023-03-26T00:02:52.676Z,3
2023-03-26T00:04:00.224Z,2
2023-03-26T00:05:07.051Z,2
2023-03-26T00:06:13.851Z,2
2023-03-26T00:07:20.683Z,3
2023-03-26T00:08:27.619Z,3
2023-03-26T00:09:34.351Z,4
2023-03-26T00:10:41.134Z,4
2023-03-26T00:11:47.946Z,4
2023-03-26T00:12:54.909Z,4
2023-03-26T00:14:01.728Z,4
2023-03-26T00:15:08.526Z,6
2023-03-26T00:16:15.313Z,6
2023-03-26T00:17:22.145Z,4
2023-03-26T00:18:29.084Z,6
2023-03-26T00:19:35.966Z,5
2023-03-26T00:20:42.725Z,5
2023-03-26T00:21:49.571Z,3
2023-03-26T00:22:56.324Z,4
2023-03-26T00:24:06.087Z,3
2023-03-26T00:25:15.618Z,3
2023-03-26T00:26:22.384Z,3
2023-03-26T00:27:29.318Z,3
2023-03-26T00:28:36.092Z,2
2023-03-26T00:29:42.976Z,2
2023-03-26T00:30:49.766Z,2
2023-03-26T00:32:01.656Z,2
2023-03-26T00:33:08.695Z,2
2023-03-26T00:34:15.556Z,2
2023-03-26T00:35:22.472Z,2
2023-03-26T00:36:29.224Z,2
2023-03-26T00:37:36.061Z,2
2023-03-26T00:38:42.895Z,2
2023-03-26T00:39:49.731Z,2
2023-03-26T00:40:56.605Z,2
2023-03-26T00:42:03.450Z,2
2023-03-26T00:43:10.269Z,2
2023-03-26T00:44:17.006Z,2
2023-03-26T00:45:23.818Z,2
2023-03-26T00:46:30.805Z,2
2023-03-26T00:47:37.547Z,2
2023-03-26T00:48:45.720Z,2
2023-03-26T00:49:51.131Z,2
2023-03-26T00:50:57.932Z,2
2023-03-26T00:52:04.737Z,2
2023-03-26T00:53:11.572Z,2
2023-03-26T00:54:18.370Z,2
2023-03-26T00:55:25.168Z,2
2023-03-26T00:56:32.073Z,2
2023-03-26T00:57:38.861Z,2
2023-03-26T00:58:45.764Z,2
2023-03-26T00:59:52.746Z,2
2023-03-26T01:00:59.763Z,2
2023-03-26T01:02:06.753Z,2
2023-03-26T01:03:19.298Z,3
2023-03-26T01:04:20.466Z,3
2023-03-26T01:05:30.152Z,3
2023-03-26T01:06:42.700Z,2
2023-03-26T01:07:49.505Z,3
2023-03-26T01:08:56.368Z,2
2023-03-26T01:10:08.287Z,3
2023-03-26T01:11:15.219Z,2
2023-03-26T01:12:24.986Z,2
2023-03-26T01:13:31.766Z,2
2023-03-26T01:14:41.468Z,3
2023-03-26T01:15:48.339Z,3
2023-03-26T01:18:02.010Z,2
2023-03-26T01:19:09.072Z,2
2023-03-26T01:20:20.923Z,2
2023-03-26T01:21:27.854Z,2
2023-03-26T01:22:34.718Z,2
2023-03-26T01:23:41.547Z,2
2023-03-26T01:24:48.343Z,2
2023-03-26T01:25:57.901Z,2
2023-03-26T01:27:04.706Z,2
2023-03-26T01:28:21.689Z,2
2023-03-26T01:29:28.349Z,2
2023-03-26T01:30:35.217Z,3
2023-03-26T01:31:42.045Z,2
2023-03-26T01:32:51.516Z,2
2023-03-26T01:34:03.245Z,2
2023-03-26T01:35:15.074Z,3
2023-03-26T01:36:27.648Z,2
2023-03-26T01:37:37.130Z,2
2023-03-26T01:38:54.016Z,2
2023-03-26T01:40:10.913Z,2
2023-03-26T01:41:20.889Z,2
2023-03-26T01:42:30.449Z,2
2023-03-26T01:43:40.501Z,2
2023-03-26T01:44:52.994Z,2
2023-03-26T01:46:04.868Z,2
2023-03-26T01:47:11.653Z,2
2023-03-26T01:48:18.536Z,2
2023-03-26T01:49:25.319Z,2
2023-03-26T01:50:32.128Z,2
2023-03-26T01:51:38.849Z,3
2023-03-26T01:52:45.623Z,3
2023-03-26T01:53:52.578Z,3
2023-03-26T01:54:59.322Z,3
2023-03-26T01:56:06.261Z,2
2023-03-26T01:57:15.721Z,2
2023-03-26T01:58:28.268Z,3
2023-03-26T01:59:40.265Z,2
2023-03-26T02:00:57.151Z,3
2023-03-26T02:02:06.781Z,2
2023-03-26T02:03:16.577Z,3
2023-03-26T02:04:28.409Z,3
2023-03-26T02:05:40.340Z,3
2023-03-26T02:06:50.031Z,3
2023-03-26T02:07:56.897Z,3
2023-03-26T02:09:11.844Z,3
2023-03-26T02:10:18.724Z,3
2023-03-26T02:11:33.616Z,3
2023-03-26T02:12:32.414Z,2
2023-03-26T02:13:39.173Z,2
2023-03-26T02:14:46.036Z,3
2023-03-26T02:15:53.007Z,2
2023-03-26T02:17:05.565Z,2
2023-03-26T02:18:12.420Z,2
2023-03-26T02:19:19.245Z,2
2023-03-26T02:20:26.018Z,3
2023-03-26T02:21:32.770Z,3
2023-03-26T02:22:39.567Z,3
2023-03-26T02:23:46.344Z,3
2023-03-26T02:24:53.119Z,3
2023-03-26T02:25:59.946Z,3
2023-03-26T02:27:09.364Z,3
2023-03-26T02:28:16.199Z,3
2023-03-26T02:29:23.047Z,3
2023-03-26T02:30:30.107Z,3
2023-03-26T02:31:36.718Z,3
2023-03-26T02:32:43.505Z,3
2023-03-26T02:33:50.287Z,3
2023-03-26T02:34:57.041Z,2
2023-03-26T02:36:04.008Z,3
2023-03-26T02:37:10.871Z,2
2023-03-26T02:38:17.742Z,2
2023-03-26T02:39:24.539Z,4
2023-03-26T02:40:31.322Z,2
2023-03-26T02:41:38.187Z,2
2023-03-26T02:42:45.058Z,2
2023-03-26T02:43:51.881Z,2
2023-03-26T02:44:58.711Z,2
2023-03-26T02:46:05.642Z,2
2023-03-26T02:47:12.470Z,2
2023-03-26T02:48:19.294Z,2
2023-03-26T02:49:26.118Z,2
2023-03-26T02:50:32.833Z,2
2023-03-26T02:51:39.618Z,2
2023-03-26T02:52:46.337Z,2
2023-03-26T02:53:53.234Z,2
2023-03-26T02:54:59.961Z,2
2023-03-26T02:56:06.802Z,2
2023-03-26T02:57:13.657Z,2
2023-03-26T02:58:20.423Z,2
2023-03-26T02:59:27.418Z,2
2023-03-26T03:00:34.193Z,2
2023-03-26T03:01:41.132Z,2
2023-03-26T03:02:48.209Z,2
2023-03-26T03:03:54.576Z,2
2023-03-26T03:05:01.433Z,2
2023-03-26T03:06:08.329Z,2
2023-03-26T03:07:15.228Z,2
2023-03-26T03:08:22.038Z,2
2023-03-26T03:09:28.865Z,2
2023-03-26T03:10:35.687Z,2
2023-03-26T03:11:42.473Z,3
2023-03-26T03:12:49.481Z,3
2023-03-26T03:13:56.281Z,4
2023-03-26T03:15:03.080Z,3
2023-03-26T03:16:10.340Z,3
2023-03-26T03:17:17.280Z,3
2023-03-26T03:18:24.041Z,4
2023-03-26T03:19:30.841Z,3
2023-03-26T03:20:37.602Z,3
2023-03-26T03:21:44.536Z,3
2023-03-26T03:22:51.391Z,3
2023-03-26T03:23:59.866Z,3
2023-03-26T03:25:04.924Z,3
2023-03-26T03:26:16.693Z,3
2023-03-26T03:27:23.496Z,3
2023-03-26T03:28:30.325Z,3
2023-03-26T03:29:37.211Z,3
2023-03-26T03:30:44.091Z,3
2023-03-26T03:31:50.829Z,3
2023-03-26T03:32:57.642Z,3
2023-03-26T03:34:04.421Z,3
2023-03-26T03:35:11.207Z,3
2023-03-26T03:36:20.073Z,3
2023-03-26T03:37:28.150Z,2
2023-03-26T03:38:34.914Z,2
2023-03-26T03:39:41.838Z,2
2023-03-26T03:40:48.680Z,4
2023-03-26T03:41:55.460Z,3
2023-03-26T03:43:02.299Z,2
2023-03-26T03:44:09.178Z,2
2023-03-26T03:45:15.980Z,2
2023-03-26T03:46:22.807Z,2
2023-03-26T03:47:29.552Z,2
2023-03-26T03:48:36.470Z,2
2023-03-26T03:49:43.374Z,2
2023-03-26T03:50:50.159Z,2
2023-03-26T03:51:56.907Z,2
2023-03-26T03:53:03.695Z,2
2023-03-26T03:54:10.485Z,2
2023-03-26T03:55:17.320Z,1
2023-03-26T03:56:24.119Z,2
2023-03-26T03:57:30.878Z,2
2023-03-26T03:58:37.673Z,1
2023-03-26T03:59:47.420Z,1
2023-03-26T04:00:51.354Z,1
2023-03-26T04:01:58.221Z,1
2023-03-26T04:03:05.131Z,1
2023-03-26T04:04:11.974Z,2
2023-03-26T04:05:18.645Z,1
2023-03-26T04:06:25.492Z,2
2023-03-26T04:07:32.248Z,2
2023-03-26T04:08:39.196Z,2
2023-03-26T04:09:46.044Z,2
2023-03-26T04:10:52.831Z,2
2023-03-26T04:11:59.607Z,2
2023-03-26T04:13:06.565Z,2
2023-03-26T04:14:13.357Z,2
2023-03-26T04:15:20.120Z,2
2023-03-26T04:16:26.922Z,2
2023-03-26T04:17:33.832Z,2
2023-03-26T04:18:40.667Z,2
2023-03-26T04:19:47.477Z,2
2023-03-26T04:20:54.206Z,2
2023-03-26T04:22:01.030Z,3
2023-03-26T04:23:07.885Z,2
2023-03-26T04:24:17.414Z,2
2023-03-26T04:25:24.241Z,2
2023-03-26T04:26:30.987Z,2
2023-03-26T04:27:37.796Z,2
2023-03-26T04:28:44.621Z,2
2023-03-26T04:29:54.436Z,2
2023-03-26T04:31:01.388Z,3
2023-03-26T04:32:08.357Z,2
2023-03-26T04:33:23.027Z,2
2023-03-26T04:34:29.833Z,2
2023-03-26T04:35:36.766Z,2
2023-03-26T04:36:43.432Z,2
2023-03-26T04:37:50.400Z,2
2023-03-26T04:38:57.217Z,2
2023-03-26T04:40:04.056Z,2
2023-03-26T04:41:16.785Z,2
2023-03-26T04:42:23.591Z,2
2023-03-26T04:43:30.573Z,2
2023-03-26T04:44:40.272Z,2
2023-03-26T04:45:47.058Z,2
2023-03-26T04:46:53.896Z,2
2023-03-26T04:48:00.808Z,1
2023-03-26T04:49:07.536Z,2
2023-03-26T04:50:14.367Z,1
2023-03-26T04:51:21.219Z,2
2023-03-26T04:52:28.034Z,1
2023-03-26T04:53:34.837Z,2
2023-03-26T04:54:41.560Z,2
2023-03-26T04:55:48.346Z,2
2023-03-26T04:56:55.354Z,1
2023-03-26T04:58:04.944Z,2
2023-03-26T04:59:11.654Z,2
2023-03-26T05:00:18.387Z,2
2023-03-26T05:01:25.457Z,1
2023-03-26T05:02:32.185Z,1
2023-03-26T05:03:39.040Z,2
2023-03-26T05:04:46.093Z,2
2023-03-26T05:05:53.848Z,2
2023-03-26T05:07:00.425Z,2
2023-03-26T05:08:07.284Z,2
2023-03-26T05:09:14.110Z,2
2023-03-26T05:10:20.886Z,3
2023-03-26T05:11:27.663Z,2
2023-03-26T05:12:34.526Z,2
2023-03-26T05:13:41.355Z,2
2023-03-26T05:14:48.157Z,3
2023-03-26T05:15:54.958Z,3
2023-03-26T05:17:01.724Z,3
2023-03-26T05:18:08.694Z,2
2023-03-26T05:19:15.358Z,3
2023-03-26T05:20:22.127Z,3
2023-03-26T05:21:29.020Z,3
2023-03-26T05:22:37.889Z,4
2023-03-26T05:23:42.662Z,3
2023-03-26T05:24:49.445Z,3
2023-03-26T05:25:56.194Z,2
2023-03-26T05:27:03.094Z,2
2023-03-26T05:28:09.929Z,2
2023-03-26T05:29:16.714Z,2
2023-03-26T05:30:23.505Z,2
2023-03-26T05:31:30.238Z,2
2023-03-26T05:32:37.059Z,2
2023-03-26T05:33:43.973Z,1
2023-03-26T05:34:50.657Z,2
2023-03-26T05:35:57.474Z,1
2023-03-26T05:37:09.477Z,1
2023-03-26T05:38:16.297Z,1
2023-03-26T05:39:23.082Z,2
2023-03-26T05:40:29.866Z,2
2023-03-26T05:41:36.872Z,1
2023-03-26T05:42:43.655Z,2
2023-03-26T05:43:50.535Z,1
2023-03-26T05:44:57.328Z,2
2023-03-26T05:46:04.184Z,1
2023-03-26T05:47:11.015Z,1
2023-03-26T05:48:17.778Z,2
2023-03-26T05:49:24.622Z,1
2023-03-26T05:50:31.435Z,2
2023-03-26T05:51:38.207Z,2
2023-03-26T05:52:44.991Z,2
2023-03-26T05:53:51.841Z,2
2023-03-26T05:54:58.569Z,2
2023-03-26T05:56:05.344Z,2
2023-03-26T05:57:12.219Z,2
2023-03-26T05:58:19.010Z,2
2023-03-26T05:59:25.975Z,2
2023-03-26T06:00:32.746Z,1
2023-03-26T06:01:39.615Z,2
2023-03-26T06:02:46.442Z,2
2023-03-26T06:03:53.269Z,2
2023-03-26T06:05:00.116Z,1
2023-03-26T06:06:06.978Z,2
2023-03-26T06:07:13.748Z,1
2023-03-26T06:08:20.556Z,1
2023-03-26T06:09:27.363Z,1
2023-03-26T06:10:34.270Z,2
2023-03-26T06:11:41.074Z,2
2023-03-26T06:12:47.960Z,2
2023-03-26T06:13:54.693Z,2
2023-03-26T06:15:01.511Z,2
2023-03-26T06:16:08.676Z,2
2023-03-26T06:17:15.558Z,2
2023-03-26T06:18:22.359Z,2
2023-03-26T06:19:29.121Z,2
2023-03-26T06:20:35.918Z,2
2023-03-26T06:21:42.765Z,3
2023-03-26T06:22:49.613Z,4
2023-03-26T06:23:56.410Z,3
2023-03-26T06:25:03.327Z,4
2023-03-26T06:26:10.153Z,4
2023-03-26T06:27:16.934Z,3
2023-03-26T06:28:23.773Z,3
2023-03-26T06:29:30.589Z,3
2023-03-26T06:30:37.358Z,3
2023-03-26T06:31:44.189Z,2
2023-03-26T06:32:51.846Z,3
2023-03-26T06:34:00.895Z,3
2023-03-26T06:35:07.858Z,2
2023-03-26T06:36:14.761Z,2
2023-03-26T06:37:21.654Z,2
2023-03-26T06:38:28.544Z,2
2023-03-26T06:39:35.321Z,2
2023-03-26T06:40:42.183Z,2
2023-03-26T06:41:48.962Z,2
2023-03-26T06:43:06.586Z,3
2023-03-26T06:44:02.563Z,3
2023-03-26T06:45:09.373Z,3
2023-03-26T06:46:16.359Z,3
2023-03-26T06:47:23.126Z,3
2023-03-26T06:48:29.937Z,2
2023-03-26T06:49:36.697Z,3
2023-03-26T06:50:43.500Z,3
2023-03-26T06:51:50.272Z,2
2023-03-26T06:52:57.486Z,2
2023-03-26T06:54:04.309Z,2
2023-03-26T06:55:11.069Z,2
2023-03-26T06:56:17.884Z,2
2023-03-26T06:57:24.684Z,2
2023-03-26T06:58:31.541Z,2
2023-03-26T06:59:38.347Z,2
2023-03-26T07:00:45.143Z,2
2023-03-26T07:01:51.923Z,2
2023-03-26T07:02:58.776Z,2
2023-03-26T07:04:05.678Z,2
2023-03-26T07:05:12.537Z,2
2023-03-26T07:06:19.401Z,3
2023-03-26T07:07:26.158Z,2
2023-03-26T07:08:32.888Z,2
2023-03-26T07:09:39.747Z,2
2023-03-26T07:10:46.504Z,2
2023-03-26T07:11:53.300Z,2
2023-03-26T07:13:00.030Z,2
2023-03-26T07:14:07.936Z,2
2023-03-26T07:15:14.734Z,2
2023-03-26T07:16:21.649Z,2
2023-03-26T07:17:28.546Z,2
2023-03-26T07:18:35.154Z,1
2023-03-26T07:19:41.967Z,2
2023-03-26T07:20:48.758Z,2
2023-03-26T07:21:56.563Z,2
2023-03-26T07:23:03.479Z,2
2023-03-26T07:24:10.408Z,1
2023-03-26T07:25:17.351Z,2
2023-03-26T07:26:24.263Z,2
2023-03-26T07:27:38.767Z,2
2023-03-26T07:29:03.903Z,2
2023-03-26T07:29:57.451Z,2
2023-03-26T07:31:12.309Z,2
2023-03-26T07:32:22.464Z,2
2023-03-26T07:33:35.008Z,1
2023-03-26T07:34:51.986Z,2
2023-03-26T07:36:03.911Z,2
2023-03-26T07:37:18.395Z,2
2023-03-26T07:38:28.086Z,1
2023-03-26T07:39:39.951Z,2
2023-03-26T07:40:57.048Z,1
2023-03-26T07:42:08.733Z,1
2023-03-26T07:43:23.294Z,2
2023-03-26T07:44:35.878Z,2
2023-03-26T07:45:47.161Z,2
2023-03-26T07:46:53.895Z,2
2023-03-26T07:48:00.752Z,2
2023-03-26T07:49:07.456Z,2
2023-03-26T07:50:14.937Z,2
2023-03-26T07:51:21.289Z,2
2023-03-26T07:52:28.326Z,2
2023-03-26T07:53:35.330Z,2
2023-03-26T07:54:42.226Z,2
2023-03-26T07:55:49.143Z,2
2023-03-26T07:57:01.976Z,2
2023-03-26T07:58:07.817Z,2
2023-03-26T07:59:17.463Z,2
2023-03-26T08:00:31.864Z,2
2023-03-26T08:01:43.768Z,2
2023-03-26T08:03:00.895Z,1
2023-03-26T08:04:23.102Z,2
2023-03-26T08:05:29.525Z,2
2023-03-26T08:06:36.470Z,2
2023-03-26T08:07:43.265Z,2
2023-03-26T08:08:57.884Z,1
2023-03-26T08:10:09.723Z,2
2023-03-26T08:11:24.251Z,1
2023-03-26T08:12:41.095Z,1
2023-03-26T08:13:55.699Z,1
2023-03-26T08:15:10.463Z,2
2023-03-26T08:16:25.410Z,1
2023-03-26T08:17:37.212Z,1
2023-03-26T08:18:48.975Z,1
2023-03-26T08:20:00.773Z,2
2023-03-26T08:21:17.610Z,1
2023-03-26T08:22:27.035Z,1
2023-03-26T08:23:33.794Z,1
2023-03-26T08:24:50.713Z,2
2023-03-26T08:26:05.829Z,2
2023-03-26T08:27:22.661Z,1
2023-03-26T08:28:37.105Z,1
2023-03-26T08:29:48.922Z,2
2023-03-26T08:31:03.791Z,1
2023-03-26T08:32:10.609Z,1
2023-03-26T08:33:17.379Z,1
2023-03-26T08:34:24.392Z,1
2023-03-26T08:35:31.185Z,1
2023-03-26T08:36:37.805Z,1
2023-03-26T08:37:44.600Z,1
2023-03-26T08:38:51.361Z,1
2023-03-26T08:39:58.071Z,1
2023-03-26T08:41:04.924Z,2
2023-03-26T08:42:11.651Z,1
2023-03-26T08:43:26.329Z,1
2023-03-26T08:44:43.229Z,1
2023-03-26T08:45:55.046Z,1
2023-03-26T08:47:07.772Z,1
2023-03-26T08:48:22.539Z,1
2023-03-26T08:49:39.424Z,1
2023-03-26T08:50:56.444Z,1
2023-03-26T08:52:08.949Z,2
2023-03-26T08:53:25.854Z,1
2023-03-26T08:54:32.721Z,2
2023-03-26T08:55:44.569Z,1
2023-03-26T08:56:56.477Z,1
2023-03-26T08:58:05.828Z,1
2023-03-26T08:59:17.641Z,1
2023-03-26T09:00:32.435Z,1
2023-03-26T09:01:44.418Z,1
2023-03-26T09:02:56.400Z,1
2023-03-26T09:04:13.250Z,1
2023-03-26T09:05:25.808Z,1
2023-03-26T09:06:40.605Z,1
2023-03-26T09:07:52.438Z,1
2023-03-26T09:08:59.204Z,1
2023-03-26T09:10:11.037Z,2
2023-03-26T09:11:22.863Z,1
2023-03-26T09:12:39.807Z,1
2023-03-26T09:13:54.177Z,2
2023-03-26T09:15:05.991Z,1
2023-03-26T09:16:23.035Z,1
2023-03-26T09:17:32.854Z,1
2023-03-26T09:18:44.722Z,1
2023-03-26T09:20:01.777Z,2
2023-03-26T09:21:13.583Z,1
2023-03-26T09:22:30.475Z,2
2023-03-26T09:23:42.411Z,1
2023-03-26T09:24:52.128Z,1
2023-03-26T09:26:06.778Z,1
2023-03-26T09:27:16.594Z,1
2023-03-26T09:28:33.445Z,1
2023-03-26T09:29:50.398Z,1
2023-03-26T09:31:07.410Z,2
2023-03-26T09:32:17.144Z,1
2023-03-26T09:33:26.590Z,1
2023-03-26T09:34:43.497Z,2
2023-03-26T09:36:00.453Z,2
2023-03-26T09:37:12.282Z,1
2023-03-26T09:38:24.178Z,2
2023-03-26T09:39:38.588Z,2
2023-03-26T09:40:48.246Z,2
2023-03-26T09:42:00.126Z,2
2023-03-26T09:43:12.914Z,2
2023-03-26T09:44:29.800Z,2
2023-03-26T09:45:44.454Z,2
2023-03-26T09:46:54.295Z,2
2023-03-26T09:48:11.217Z,1
2023-03-26T09:49:25.867Z,1
2023-03-26T09:50:38.589Z,2
2023-03-26T09:51:55.527Z,2
2023-03-26T09:53:12.474Z,2
2023-03-26T09:54:29.371Z,2
2023-03-26T09:55:41.778Z,1
2023-03-26T09:56:51.661Z,2
2023-03-26T09:58:08.581Z,1
2023-03-26T09:59:25.574Z,2
2023-03-26T10:00:35.231Z,2
2023-03-26T10:01:47.173Z,2
2023-03-26T10:02:59.148Z,3
2023-03-26T10:04:14.032Z,2
2023-03-26T10:05:26.000Z,1
2023-03-26T10:06:37.961Z,1
2023-03-26T10:07:44.829Z,1
2023-03-26T10:08:59.353Z,1
2023-03-26T10:10:16.341Z,2
2023-03-26T10:11:28.348Z,1
2023-03-26T10:12:45.232Z,2
2023-03-26T10:13:54.673Z,1
2023-03-26T10:15:06.581Z,1
2023-03-26T10:16:16.217Z,1
2023-03-26T10:17:30.730Z,1
2023-03-26T10:18:47.645Z,1
2023-03-26T10:19:59.596Z,1
2023-03-26T10:21:11.556Z,1
2023-03-26T10:22:23.384Z,1
2023-03-26T10:23:32.881Z,1
2023-03-26T10:24:49.785Z,1
2023-03-26T10:26:04.418Z,1
2023-03-26T10:27:13.983Z,1
2023-03-26T10:28:23.646Z,1
2023-03-26T10:29:36.185Z,2
2023-03-26T10:30:53.312Z,1
2023-03-26T10:32:05.032Z,2
2023-03-26T10:33:16.872Z,2
2023-03-26T10:34:31.330Z,2
2023-03-26T10:35:43.224Z,2
2023-03-26T10:36:55.123Z,2
2023-03-26T10:38:07.027Z,2
2023-03-26T10:39:36.443Z,2
2023-03-26T10:40:33.570Z,1
2023-03-26T10:41:45.596Z,1
2023-03-26T10:42:57.519Z,1
2023-03-26T10:44:14.467Z,1
2023-03-26T10:45:31.424Z,1
2023-03-26T10:46:46.195Z,1
2023-03-26T10:48:03.487Z,1
2023-03-26T10:49:20.286Z,1
2023-03-26T10:50:34.839Z,1
2023-03-26T10:51:46.661Z,1
2023-03-26T10:52:56.101Z,6
2023-03-26T10:54:10.991Z,1
2023-03-26T10:55:17.870Z,1
2023-03-26T10:56:34.819Z,1
2023-03-26T10:57:44.748Z,1
2023-03-26T10:58:59.196Z,1
2023-03-26T11:00:09.097Z,1
2023-03-26T11:01:18.523Z,1
2023-03-26T11:02:29.206Z,1
2023-03-26T11:03:32.131Z,1
2023-03-26T11:04:44.043Z,1
2023-03-26T11:05:53.789Z,1
2023-03-26T11:07:05.546Z,1
2023-03-26T11:08:31.047Z,1
2023-03-26T11:09:37.174Z,1
2023-03-26T11:10:53.969Z,1
2023-03-26T11:12:25.970Z,1
2023-03-26T11:13:20.150Z,1
2023-03-26T11:14:37.058Z,1
2023-03-26T11:15:54.024Z,1
2023-03-26T11:17:00.818Z,1
2023-03-26T11:18:07.627Z,0
2023-03-26T11:19:19.550Z,1
2023-03-26T11:20:31.371Z,1
2023-03-26T11:21:45.728Z,1
2023-03-26T11:22:57.534Z,1
2023-03-26T11:24:14.598Z,1
2023-03-26T11:25:31.611Z,1
2023-03-26T11:26:48.478Z,1
2023-03-26T11:28:05.418Z,2
2023-03-26T11:29:31.976Z,3
2023-03-26T11:30:32.016Z,3
2023-03-26T11:31:49.026Z,5
2023-03-26T11:32:58.797Z,2
2023-03-26T11:34:08.540Z,2
2023-03-26T11:35:39.336Z,1
2023-03-26T11:36:32.927Z,1
2023-03-26T11:37:39.648Z,3
2023-03-26T11:38:46.536Z,3
2023-03-26T11:39:55.174Z,2
2023-03-26T11:41:00.142Z,2
2023-03-26T11:42:07.143Z,2
2023-03-26T11:43:16.791Z,2
2023-03-26T11:44:23.579Z,1
2023-03-26T11:45:30.408Z,1
2023-03-26T11:46:37.219Z,1
2023-03-26T11:47:44.086Z,1
2023-03-26T11:48:53.764Z,1
2023-03-26T11:50:00.519Z,1
2023-03-26T11:51:07.425Z,1
2023-03-26T11:52:14.291Z,2
2023-03-26T11:53:21.164Z,1
2023-03-26T11:54:28.001Z,1
2023-03-26T11:55:34.780Z,1
2023-03-26T11:56:41.621Z,1
2023-03-26T11:57:51.047Z,2
2023-03-26T11:58:57.950Z,2
2023-03-26T12:00:12.529Z,2
2023-03-26T12:01:19.323Z,1
2023-03-26T12:02:29.401Z,2
2023-03-26T12:03:40.885Z,2
2023-03-26T12:04:47.704Z,2
2023-03-26T12:05:54.537Z,2
2023-03-26T12:07:01.350Z,2
2023-03-26T12:08:18.431Z,1
2023-03-26T12:09:25.167Z,1
2023-03-26T12:10:32.019Z,2
2023-03-26T12:11:41.608Z,1
2023-03-26T12:12:48.422Z,2
2023-03-26T12:13:55.143Z,2
2023-03-26T12:15:01.875Z,1
2023-03-26T12:16:08.937Z,2
2023-03-26T12:17:15.844Z,1
2023-03-26T12:18:30.390Z,2
2023-03-26T12:19:37.131Z,1
2023-03-26T12:20:44.010Z,2
2023-03-26T12:21:50.782Z,1
2023-03-26T12:22:57.624Z,1
2023-03-26T12:24:04.466Z,2
2023-03-26T12:25:11.273Z,4
2023-03-26T12:26:24.191Z,5
2023-03-26T12:27:41.149Z,3
2023-03-26T12:28:50.798Z,4
2023-03-26T12:29:57.513Z,2
2023-03-26T12:31:12.079Z,1
2023-03-26T12:32:19.024Z,1
2023-03-26T12:33:25.828Z,1
2023-03-26T12:34:35.446Z,1
2023-03-26T12:35:42.065Z,1
2023-03-26T12:36:48.846Z,1
2023-03-26T12:37:55.663Z,1
2023-03-26T12:39:16.448Z,1
2023-03-26T12:40:27.112Z,1
2023-03-26T12:42:26.030Z,1
2023-03-26T12:44:43.186Z,1
2023-03-26T12:44:52.183Z,1
2023-03-26T12:45:02.951Z,1
2023-03-26T12:47:15.008Z,1
2023-03-26T12:47:56.804Z,1
2023-03-26T12:48:31.588Z,1
2023-03-26T12:49:38.369Z,1
2023-03-26T12:50:45.169Z,1
2023-03-26T12:51:59.773Z,1
2023-03-26T12:53:11.781Z,2
2023-03-26T12:54:21.621Z,1
2023-03-26T12:55:38.574Z,2
2023-03-26T12:56:45.361Z,2
2023-03-26T12:57:59.982Z,2
2023-03-26T12:59:09.939Z,1
2023-03-26T13:00:24.465Z,1
2023-03-26T13:01:41.427Z,1
2023-03-26T13:02:48.275Z,2
2023-03-26T13:03:59.983Z,2
2023-03-26T13:05:14.930Z,1
2023-03-26T13:06:31.820Z,1
2023-03-26T13:07:43.735Z,1
2023-03-26T13:09:00.672Z,1
2023-03-26T13:10:12.517Z,1
2023-03-26T13:11:24.854Z,1
2023-03-26T13:12:37.409Z,1
2023-03-26T13:13:49.277Z,1
2023-03-26T13:15:01.128Z,1
2023-03-26T13:16:10.601Z,1
2023-03-26T13:17:27.536Z,1
2023-03-26T13:18:37.076Z,1
2023-03-26T13:19:51.805Z,2
2023-03-26T13:21:01.456Z,1
2023-03-26T13:22:11.016Z,1
2023-03-26T13:23:29.030Z,2
2023-03-26T13:24:45.948Z,2
2023-03-26T13:25:55.375Z,1
2023-03-26T13:27:12.364Z,1
2023-03-26T13:28:29.257Z,2
2023-03-26T13:29:43.865Z,1
2023-03-26T13:30:58.473Z,1
2023-03-26T13:32:10.176Z,2
2023-03-26T13:33:21.978Z,2
2023-03-26T13:34:33.862Z,1
2023-03-26T13:35:43.610Z,1
2023-03-26T13:36:53.035Z,2
2023-03-26T13:38:09.890Z,2
2023-03-26T13:39:16.882Z,1
2023-03-26T13:40:26.447Z,1
2023-03-26T13:41:36.338Z,1
2023-03-26T13:42:53.540Z,1
2023-03-26T13:44:10.178Z,1
2023-03-26T13:45:19.960Z,1
2023-03-26T13:46:34.662Z,1
2023-03-26T13:47:41.400Z,1
2023-03-26T13:48:48.146Z,1
2023-03-26T13:49:59.986Z,2
2023-03-26T13:51:09.458Z,1
2023-03-26T13:52:21.335Z,1
2023-03-26T13:53:28.115Z,1
2023-03-26T13:54:38.124Z,1
2023-03-26T13:55:47.615Z,2
2023-03-26T13:56:57.455Z,1
2023-03-26T13:58:12.056Z,1
2023-03-26T13:59:26.832Z,1
2023-03-26T14:00:38.779Z,1
2023-03-26T14:01:45.666Z,1
2023-03-26T14:02:57.574Z,1
2023-03-26T14:04:06.939Z,1
2023-03-26T14:05:18.744Z,1
2023-03-26T14:06:25.597Z,1
2023-03-26T14:07:32.481Z,1
2023-03-26T14:08:44.329Z,1
2023-03-26T14:09:51.228Z,2
2023-03-26T14:11:03.791Z,2
2023-03-26T14:12:20.950Z,2
2023-03-26T14:13:27.476Z,2
2023-03-26T14:14:36.796Z,2
2023-03-26T14:15:43.592Z,2
2023-03-26T14:16:50.478Z,2
2023-03-26T14:18:00.098Z,2
2023-03-26T14:19:14.859Z,2
2023-03-26T14:20:26.758Z,1
2023-03-26T14:21:43.727Z,1
2023-03-26T14:22:56.412Z,1
2023-03-26T14:24:06.076Z,1
2023-03-26T14:25:18.688Z,1
2023-03-26T14:26:28.571Z,2
2023-03-26T14:27:40.431Z,2
2023-03-26T14:28:47.244Z,2
2023-03-26T14:29:57.543Z,2
2023-03-26T14:31:13.634Z,1
2023-03-26T14:32:28.130Z,1
2023-03-26T14:33:39.927Z,1
2023-03-26T14:34:51.747Z,1
2023-03-26T14:36:01.482Z,1
2023-03-26T14:37:17.301Z,2
2023-03-26T14:38:32.910Z,2
2023-03-26T14:39:49.895Z,1
2023-03-26T14:41:01.714Z,2
2023-03-26T14:42:18.762Z,2
2023-03-26T14:43:33.371Z,1
2023-03-26T14:44:48.766Z,3
2023-03-26T14:46:04.984Z,3
2023-03-26T14:47:22.068Z,3
2023-03-26T14:48:28.707Z,2
2023-03-26T14:49:45.669Z,1
2023-03-26T14:51:00.544Z,1
2023-03-26T14:52:12.361Z,1
2023-03-26T14:53:19.130Z,1
2023-03-26T14:54:30.950Z,1
2023-03-26T14:55:37.726Z,1
2023-03-26T14:56:54.965Z,1
2023-03-26T14:58:06.795Z,1
2023-03-26T14:59:21.255Z,1
2023-03-26T15:00:38.376Z,1
2023-03-26T15:01:50.351Z,1
2023-03-26T15:03:02.327Z,1
2023-03-26T15:04:19.219Z,1
2023-03-26T15:05:31.123Z,1
2023-03-26T15:06:48.010Z,2
2023-03-26T15:08:04.915Z,1
2023-03-26T15:09:19.352Z,1
2023-03-26T15:10:34.290Z,2
2023-03-26T15:11:51.212Z,2
2023-03-26T15:13:08.176Z,2
2023-03-26T15:14:25.111Z,1
2023-03-26T15:15:37.002Z,1
2023-03-26T15:16:54.099Z,2
2023-03-26T15:18:06.357Z,1
2023-03-26T15:19:18.222Z,1
2023-03-26T15:20:33.010Z,2
2023-03-26T15:21:47.547Z,2
2023-03-26T15:22:59.398Z,2
2023-03-26T15:24:11.285Z,2
2023-03-26T15:25:23.180Z,2
2023-03-26T15:26:40.063Z,2
2023-03-26T15:27:49.581Z,2
2023-03-26T15:29:01.428Z,2
2023-03-26T15:30:13.373Z,2
2023-03-26T15:31:30.331Z,3
2023-03-26T15:32:44.863Z,3
2023-03-26T15:33:57.504Z,3
2023-03-26T15:35:12.683Z,3
2023-03-26T15:36:23.197Z,3
2023-03-26T15:37:33.211Z,3
2023-03-26T15:38:47.834Z,2
2023-03-26T15:40:04.739Z,2
2023-03-26T15:41:21.872Z,2
2023-03-26T15:42:41.299Z,2
2023-03-26T15:44:07.236Z,2
2023-03-26T15:45:15.222Z,2
2023-03-26T15:46:37.326Z,2
2023-03-26T15:47:49.183Z,2
2023-03-26T15:49:01.050Z,1
2023-03-26T15:50:12.924Z,2
2023-03-26T15:51:19.797Z,2
2023-03-26T15:52:36.730Z,1
2023-03-26T15:53:53.682Z,2
2023-03-26T15:55:03.306Z,1
2023-03-26T15:56:12.957Z,1
2023-03-26T15:57:19.965Z,2
2023-03-26T15:58:36.722Z,2
2023-03-26T15:59:49.330Z,1
2023-03-26T16:01:06.392Z,1
2023-03-26T16:02:23.302Z,2
2023-03-26T16:03:30.026Z,1
2023-03-26T16:04:50.254Z,2
2023-03-26T16:05:57.443Z,2
2023-03-26T16:07:09.298Z,2
2023-03-26T16:08:24.195Z,2
2023-03-26T16:09:41.050Z,2
2023-03-26T16:10:53.745Z,1
2023-03-26T16:12:00.493Z,2
2023-03-26T16:13:07.410Z,2
2023-03-26T16:14:23.459Z,2
2023-03-26T16:15:39.181Z,2
2023-03-26T16:16:46.144Z,2
2023-03-26T16:17:58.195Z,2
2023-03-26T16:19:12.862Z,2
2023-03-26T16:20:22.173Z,3
2023-03-26T16:21:36.951Z,4
2023-03-26T16:22:46.666Z,3
2023-03-26T16:23:57.441Z,2
2023-03-26T16:25:10.079Z,2
2023-03-26T16:26:24.061Z,2
2023-03-26T16:27:38.909Z,3
2023-03-26T16:28:45.750Z,2
2023-03-26T16:29:55.105Z,3
2023-03-26T16:31:04.901Z,3
2023-03-26T16:32:11.774Z,3
2023-03-26T16:33:18.564Z,4
2023-03-26T16:34:25.454Z,3
2023-03-26T16:35:32.505Z,4
2023-03-26T16:36:41.940Z,3
2023-03-26T16:37:48.771Z,4
2023-03-26T16:39:05.723Z,3
2023-03-26T16:40:20.684Z,3
2023-03-26T16:41:30.586Z,4
2023-03-26T16:42:42.479Z,4
2023-03-26T16:43:59.510Z,4
2023-03-26T16:45:13.887Z,4
2023-03-26T16:46:25.818Z,4
2023-03-26T16:47:40.389Z,5
2023-03-26T16:48:55.071Z,5
2023-03-26T16:50:07.952Z,5
2023-03-26T16:51:18.955Z,5
2023-03-26T16:52:25.766Z,4
2023-03-26T16:53:42.720Z,4
2023-03-26T16:54:57.293Z,4
2023-03-26T16:56:14.208Z,3
2023-03-26T16:57:24.011Z,5
2023-03-26T16:58:30.923Z,14
2023-03-26T16:59:42.835Z,8
2023-03-26T17:00:59.813Z,4
2023-03-26T17:02:10.099Z,6
2023-03-26T17:03:19.687Z,4
2023-03-26T17:04:34.342Z,3
2023-03-26T17:05:41.210Z,3
2023-03-26T17:06:53.102Z,3
2023-03-26T17:08:07.758Z,3
2023-03-26T17:09:19.658Z,3
2023-03-26T17:10:36.611Z,4
2023-03-26T17:11:53.544Z,2
2023-03-26T17:13:05.517Z,2
2023-03-26T17:14:14.999Z,2
2023-03-26T17:15:31.925Z,2